Impacts METAR Board
IDs:

KMCO - Orlando Intl, FL, US

Updated at: 1800 UTC 02 Oct 2022
Potential Impact None Slight Moderate High
Time 02/06Z 02/07Z 02/08Z 02/09Z 02/10Z 02/11Z 02/12Z 02/13Z 02/14Z 02/15Z 02/16Z 02/17Z 02/18Z
Temp70 69 69 68 67 67 68 73 77 80 82 84 85
Dewpt63 64 64 64 64 64 65 66 65 64 61 57 58
Altim29.92 29.91 29.90 29.89 29.90 29.92 29.93 29.94 29.95 29.94 29.94 29.93 29.90
VIS10 10 10 10 10 10 10 10 10 10 10 10 10
CIG-- -- -- -- -- -- -- -- -- -- -- -- --
CoverFEWCLRCLRCLRFEWFEWCLRFEWFEWCLRCLRCLRFEW
FltCatVFRVFRVFRVFRVFRVFRVFRVFRVFRVFRVFRVFRVFR
WX--------------------------
WDir300310000280260300280320320310310
WSpd5 4 0 0 0 3 3 7 7 8 7 9 9
WGst-- -- -- -- -- -- -- -- -- -- -- -- 18
Raw hourly METARs
KMCO 020553Z 30005KT 10SM FEW055 21/17 A2992 RMK AO2 SLP131 T02110172 10250 20211 50003
KMCO 020653Z 31004KT 10SM CLR 21/18 A2991 RMK AO2 SLP127 T02060178
KMCO 020753Z 00000KT 10SM CLR 21/18 A2990 RMK AO2 SLP122 T02060178
KMCO 020853Z 00000KT 10SM CLR 20/18 A2989 RMK AO2 SLP120 T02000178 56010
KMCO 020953Z 00000KT 10SM FEW055 19/18 A2990 RMK AO2 SLP122 T01940178
KMCO 021053Z 28003KT 10SM FEW055 19/18 A2992 RMK AO2 SLP128 T01940178
KMCO 021153Z 26003KT 10SM CLR 20/18 A2993 RMK AO2 SLP133 T02000183 10211 20183 53013
KMCO 021253Z 30007KT 10SM FEW055 23/19 A2994 RMK AO2 SLP136 T02280189
KMCO 021353Z 28007KT 10SM FEW060 25/18 A2995 RMK AO2 SLP139 T02500183
KMCO 021453Z 32008KT 10SM CLR 27/18 A2994 RMK AO2 SLP138 T02670178 50005
KMCO 021553Z 32007KT 290V350 10SM CLR 28/16 A2994 RMK AO2 SLP136 T02780161
KMCO 021653Z 31009KT 10SM CLR 29/14 A2993 RMK AO2 SLP132 T02890139
KMCO 021753Z 31009G18KT 10SM FEW060 29/14 A2990 RMK AO2 SLP125 T02940144 10294 20200 58013



Page loaded:  18:53 UTC  |   11:53 AM Pacific  |   12:53 PM Mountain  |   01:53 PM Central  |   02:53 PM Eastern

 

ADVISORIES

FORECASTS

FORECASTS

OBSERVATIONS

USER TOOLS

ABOUT US